Time;durP1;ratioP1;P1;durP2;ratioP2;P2;SDS_P1;SDS_P2;PMS_P1;PMS_P2;Temp;Humidity;BMP_temperature;BMP_pressure;BME280_temperature;BME280_humidity;BME280_pressure;Samples;Min_cycle;Max_cycle;Signal;HPM_P1;HPM_P2
2021/12/17 00:07:37;;;;;;;14.10;4.10;;;;;;;4.27;80.60;101160.09;208635;1321;143300;-77
2021/12/17 00:12:52;;;;;;;14.90;5.00;;;;;;;4.24;80.52;101158.30;208679;1320;141075;-73
2021/12/17 00:18:11;;;;;;;17.40;5.30;;;;;;;4.20;80.63;101166.30;208538;1317;139106;-75
2021/12/17 00:51:11;;;;;;;14.90;6.00;;;;;;;4.14;81.03;101159.43;207706;1318;141803;-72
2021/12/17 00:56:04;;;;;;;13.90;6.50;;;;;;;4.13;81.22;101150.52;206777;1317;139150;-72
2021/12/17 01:01:16;;;;;;;18.20;6.00;;;;;;;4.09;81.20;101158.09;207319;1318;140025;-71
2021/12/17 01:06:24;;;;;;;16.90;5.90;;;;;;;4.11;80.87;101161.27;207426;1318;140167;-69
2021/12/17 01:11:35;;;;;;;12.50;4.90;;;;;;;4.09;81.31;101160.04;207894;1317;140624;-75
2021/12/17 01:16:43;;;;;;;14.80;4.20;;;;;;;4.10;81.30;101164.04;207151;1317;141307;-70
2021/12/17 01:22:15;;;;;;;;;;;;;;;4.13;81.02;101172.66;207307;1318;141656;-73
2021/12/17 01:43:53;;;;;;;14.10;6.60;;;;;;;4.21;81.50;101175.02;207770;1318;139924;-72
2021/12/17 02:00:52;;;;;;;11.30;3.80;;;;;;;4.25;81.48;101198.03;207927;1317;139601;-70
2021/12/17 02:06:05;;;;;;;14.50;3.90;;;;;;;4.26;81.39;101186.79;207517;1317;140524;-70
2021/12/17 02:33:32;;;;;;;20.40;4.30;;;;;;;4.30;81.48;101178.40;208353;1320;140957;-71
2021/12/17 02:38:41;;;;;;;13.70;5.70;;;;;;;4.31;81.29;101175.37;207838;1320;140837;-70
2021/12/17 02:49:14;;;;;;;10.50;3.90;;;;;;;4.27;81.34;101165.21;207760;1318;143418;-71
2021/12/17 02:54:31;;;;;;;15.50;3.40;;;;;;;4.27;81.35;101167.36;207036;1317;141045;-71
2021/12/17 02:59:39;;;;;;;10.80;3.60;;;;;;;4.26;81.34;101175.30;207469;1317;139886;-73
2021/12/17 03:04:45;;;;;;;17.20;8.20;;;;;;;4.22;81.44;101177.17;207583;1321;141936;-73
2021/12/17 03:10:03;;;;;;;8.10;3.60;;;;;;;4.18;81.56;101181.50;207402;1318;139734;-71
2021/12/17 03:15:19;;;;;;;20.30;6.80;;;;;;;4.14;81.57;101179.60;207286;1318;140854;-70
2021/12/17 03:26:05;;;;;;;22.50;5.60;;;;;;;4.13;81.50;101161.05;207260;1318;140278;-74
2021/12/17 03:31:12;;;;;;;13.30;3.70;;;;;;;4.11;81.55;101155.66;207629;1318;140790;-73
2021/12/17 03:36:19;;;;;;;19.40;3.70;;;;;;;4.07;81.56;101147.13;207075;1318;141429;-72
2021/12/17 03:41:35;;;;;;;11.20;4.80;;;;;;;4.07;81.42;101143.17;208567;1319;140422;-72
2021/12/17 03:46:44;;;;;;;10.60;3.40;;;;;;;4.07;81.20;101134.23;207131;1316;140059;-75
2021/12/17 03:52:04;;;;;;;;;;;;;;;4.01;81.45;101126.55;206990;1318;141734;-73
2021/12/17 03:57:17;;;;;;;10.30;4.90;;;;;;;3.97;81.44;101113.48;207709;1317;126733;-71
2021/12/17 04:02:28;;;;;;;12.10;5.40;;;;;;;4.00;81.38;101119.33;208106;1318;141271;-73
2021/12/17 04:07:37;;;;;;;20.60;7.10;;;;;;;4.00;81.58;101127.36;208717;1320;139810;-75
2021/12/17 04:13:01;;;;;;;13.40;4.90;;;;;;;3.98;81.36;101126.59;207636;1319;139316;-72
2021/12/17 04:18:10;;;;;;;10.90;4.40;;;;;;;3.97;81.29;101118.05;208270;1318;139519;-73
2021/12/17 04:23:21;;;;;;;15.60;6.80;;;;;;;3.97;81.22;101118.05;209272;1320;140206;-75
2021/12/17 04:28:27;;;;;;;12.90;4.40;;;;;;;3.95;81.30;101115.60;207665;1319;141717;-74
2021/12/17 04:33:34;;;;;;;15.70;3.80;;;;;;;3.94;81.25;101123.14;208341;1318;139716;-73
2021/12/17 04:38:39;;;;;;;;;;;;;;;3.93;81.10;101123.51;208228;1318;140624;-71
2021/12/17 05:05:09;;;;;;;18.40;5.30;;;;;;;3.92;81.34;101137.34;208240;1351;657132;-74
2021/12/17 05:10:29;;;;;;;17.80;6.00;;;;;;;3.90;81.26;101134.47;205320;1327;139594;-71
2021/12/17 05:21:09;;;;;;;6.50;3.80;;;;;;;3.90;81.41;101145.90;205437;1324;140549;-72
2021/12/17 05:26:25;;;;;;;16.10;4.40;;;;;;;3.89;81.54;101151.04;206858;1324;141160;-73
2021/12/17 05:31:33;;;;;;;20.40;5.00;;;;;;;3.87;81.56;101158.28;205753;1325;140724;-73
2021/12/17 05:36:50;;;;;;;14.20;6.10;;;;;;;3.91;81.16;101161.94;205663;1322;139872;-71
2021/12/17 05:41:55;;;;;;;14.10;4.80;;;;;;;3.91;81.48;101161.80;205875;1327;139044;-72
2021/12/17 05:47:11;;;;;;;18.60;4.80;;;;;;;3.88;81.42;101164.19;205556;1327;139012;-71
2021/12/17 05:52:18;;;;;;;17.20;6.40;;;;;;;3.86;81.43;101158.97;205993;1326;139607;-70
2021/12/17 05:57:38;;;;;;;17.30;8.70;;;;;;;3.83;81.45;101153.41;205535;1328;140686;-72
2021/12/17 06:02:44;;;;;;;25.60;5.80;;;;;;;3.79;81.58;101160.38;205205;1328;139581;-72
2021/12/17 06:07:51;;;;;;;23.30;4.90;;;;;;;3.80;81.44;101165.16;205841;1327;139643;-75
2021/12/17 06:12:57;;;;;;;11.30;3.00;;;;;;;3.73;81.52;101151.63;205834;1327;150633;-74
2021/12/17 06:18:02;;;;;;;9.30;3.90;;;;;;;3.67;81.50;101154.63;206587;1325;140114;-72
2021/12/17 06:23:29;;;;;;;8.60;3.40;;;;;;;3.70;81.46;101156.82;206732;1327;139946;-72
2021/12/17 06:28:40;;;;;;;12.50;4.90;;;;;;;3.68;81.71;101149.69;207465;1328;140313;-74
2021/12/17 06:33:48;;;;;;;21.40;5.40;;;;;;;3.69;81.66;101158.86;208149;1321;140895;-73
2021/12/17 06:39:02;;;;;;;17.00;7.60;;;;;;;3.75;81.67;101164.44;208669;1318;139100;-73
2021/12/17 06:44:14;;;;;;;11.10;4.70;;;;;;;3.78;81.69;101156.42;208559;1321;139909;-77
2021/12/17 06:55:02;;;;;;;15.50;7.80;;;;;;;3.82;81.66;101152.35;207210;1321;140687;-74
2021/12/17 07:01:04;;;;;;;;;;;;;;;3.86;81.85;101155.05;207880;1320;139882;-76
2021/12/17 07:05:59;;;;;;;14.40;5.50;;;;;;;3.83;81.81;101150.11;207874;1321;125801;-75
2021/12/17 07:11:37;;;;;;;13.50;5.40;;;;;;;3.83;81.77;101151.47;207400;1319;139212;-76
2021/12/17 07:43:37;;;;;;;17.70;6.40;;;;;;;3.81;81.97;101160.19;207844;1320;126863;-73
2021/12/17 07:49:07;;;;;;;10.60;4.30;;;;;;;3.80;81.99;101170.44;207018;1321;140222;-73
2021/12/17 07:54:12;;;;;;;15.60;6.40;;;;;;;3.80;82.17;101180.29;207824;1319;140557;-76
2021/12/17 07:59:29;;;;;;;10.10;5.00;;;;;;;3.82;82.04;101180.97;207040;1321;140091;-74
2021/12/17 08:04:36;;;;;;;15.80;5.70;;;;;;;3.83;81.88;101181.43;207069;1320;139004;-72
2021/12/17 08:09:47;;;;;;;16.90;7.00;;;;;;;3.80;82.05;101181.18;208099;1319;141117;-74
2021/12/17 08:14:52;;;;;;;13.90;4.30;;;;;;;3.83;82.06;101185.13;208314;1319;140512;-76
2021/12/17 08:25:48;;;;;;;13.30;5.30;;;;;;;3.88;82.05;101195.45;207509;1321;140060;-73
2021/12/17 08:30:54;;;;;;;16.90;5.30;;;;;;;3.91;81.80;101192.38;208336;1321;140576;-73
2021/12/17 08:36:06;;;;;;;12.50;5.90;;;;;;;3.93;81.98;101185.27;209010;1321;139929;-75
2021/12/17 08:41:12;;;;;;;21.10;6.00;;;;;;;3.96;81.91;101178.13;209105;1320;139753;-70
2021/12/17 08:46:20;;;;;;;16.60;5.70;;;;;;;4.00;81.79;101184.23;206710;1321;139864;-73
2021/12/17 08:51:25;;;;;;;18.50;5.50;;;;;;;4.04;81.72;101193.12;208562;1319;140419;-73
2021/12/17 08:56:32;;;;;;;17.20;6.20;;;;;;;4.07;81.61;101203.77;207116;1320;139389;-70
2021/12/17 09:02:01;;;;;;;16.60;5.20;;;;;;;4.09;81.46;101196.98;206942;1319;140012;-70
2021/12/17 09:07:10;;;;;;;12.20;5.20;;;;;;;4.09;81.50;101198.73;206620;1319;140882;-70
2021/12/17 09:12:15;;;;;;;17.70;5.70;;;;;;;4.12;81.50;101202.67;207954;1321;139769;-72
2021/12/17 09:17:29;;;;;;;18.40;5.70;;;;;;;4.16;81.43;101188.44;207209;1320;140113;-71
2021/12/17 09:22:47;;;;;;;12.50;4.30;;;;;;;4.18;81.30;101190.58;206948;1319;140063;-70
2021/12/17 09:27:52;;;;;;;;;;;;;;;4.23;81.49;101192.88;207235;1319;140419;-70
2021/12/17 09:33:03;;;;;;;12.60;5.00;;;;;;;4.28;81.62;101190.30;208433;1317;125786;-71
2021/12/17 09:38:09;;;;;;;14.10;4.30;;;;;;;4.33;81.42;101187.82;207179;1319;141909;-69
2021/12/17 09:43:15;;;;;;;9.00;4.00;;;;;;;4.34;81.36;101194.86;206997;1319;140874;-70
2021/12/17 09:48:37;;;;;;;;;;;;;;;;;;;;;
2021/12/17 09:53:49;;;;;;;15.60;5.10;;;;;;;4.37;81.33;101205.30;208000;1316;140891;-70
2021/12/17 09:58:56;;;;;;;11.10;6.70;;;;;;;4.39;81.22;101207.98;208145;1315;141359;-69
2021/12/17 10:04:39;;;;;;;;;;;;;;;;;;;;;
2021/12/17 10:10:27;;;;;;;;;;;;;;;;;;;;;
2021/12/17 10:16:06;;;;;;;15.90;4.30;;;;;;;4.47;80.90;101200.16;207730;1316;140382;-69
2021/12/17 10:21:20;;;;;;;15.00;5.40;;;;;;;4.52;80.79;101194.64;207959;1320;139325;-68
2021/12/17 10:26:30;;;;;;;19.10;5.70;;;;;;;4.58;80.82;101189.77;206914;1318;139071;-70
2021/12/17 10:31:37;;;;;;;11.50;4.10;;;;;;;4.64;80.76;101189.28;208782;1317;139987;-69
2021/12/17 10:37:00;;;;;;;26.30;6.80;;;;;;;4.70;80.50;101193.50;209284;1317;140910;-69
2021/12/17 10:42:08;;;;;;;16.70;5.80;;;;;;;4.77;80.47;101192.96;208371;1317;140251;-69
2021/12/17 10:52:32;;;;;;;11.80;4.50;;;;;;;4.86;80.23;101176.98;209503;1316;139066;-69
2021/12/17 10:57:43;;;;;;;13.60;5.20;;;;;;;4.95;80.20;101178.98;208986;1317;140239;-68
2021/12/17 11:03:01;;;;;;;14.60;4.80;;;;;;;4.97;80.34;101178.43;208716;1319;140436;-69
2021/12/17 11:08:33;;;;;;;16.30;6.10;;;;;;;4.99;79.84;101173.67;207209;1317;139418;-69
2021/12/17 11:14:01;;;;;;;14.90;3.70;;;;;;;4.98;79.89;101170.41;206634;1321;140062;-70
2021/12/17 11:19:20;;;;;;;9.30;5.80;;;;;;;4.97;79.75;101162.41;207824;1318;140341;-74
2021/12/17 11:24:28;;;;;;;7.80;3.40;;;;;;;4.95;79.77;101162.27;207249;1318;139823;-71
2021/12/17 11:29:33;;;;;;;13.50;5.00;;;;;;;5.00;79.66;101159.23;208285;1316;141916;-70
2021/12/17 11:34:39;;;;;;;17.10;5.70;;;;;;;4.98;79.35;101161.71;207811;1316;153010;-68
2021/12/17 11:39:57;;;;;;;5.00;2.70;;;;;;;4.92;79.61;101163.62;207714;1315;142815;-68
2021/12/17 11:51:23;;;;;;;12.90;4.80;;;;;;;4.87;79.47;101167.20;207065;1319;140068;-68
2021/12/17 11:56:33;;;;;;;11.50;4.60;;;;;;;4.88;79.22;101168.15;207024;1315;140916;-68
2021/12/17 12:02:44;;;;;;;16.50;4.70;;;;;;;4.88;79.08;101165.52;207593;1316;141182;-69
2021/12/17 12:07:50;;;;;;;20.00;4.50;;;;;;;4.91;79.22;101161.08;208266;1313;140214;-70
2021/12/17 12:13:08;;;;;;;;;;;;;;;4.93;79.09;101155.04;208792;1316;139449;-70
2021/12/17 12:18:18;;;;;;;8.50;3.20;;;;;;;4.94;79.00;101153.35;208312;1316;126999;-68
2021/12/17 12:24:09;;;;;;;6.70;3.30;;;;;;;4.98;78.67;101150.82;207256;1315;140239;-68
2021/12/17 12:29:26;;;;;;;10.10;4.40;;;;;;;4.99;78.47;101146.32;207568;1316;139368;-71
2021/12/17 12:34:37;;;;;;;12.30;4.20;;;;;;;5.03;78.65;101140.29;208122;1316;143700;-70
2021/12/17 12:40:15;;;;;;;11.10;4.40;;;;;;;5.06;78.75;101138.17;208159;1316;141416;-72
2021/12/17 12:45:32;;;;;;;19.50;4.50;;;;;;;5.08;78.55;101133.52;208185;1316;141700;-73
2021/12/17 12:50:49;;;;;;;;;;;;;;;;;;;;;
2021/12/17 12:55:55;;;;;;;10.20;3.30;;;;;;;5.22;78.27;101119.00;208925;1316;141688;-71
2021/12/17 13:01:01;;;;;;;8.20;3.70;;;;;;;5.21;78.31;101130.02;209211;1317;139096;-71
2021/12/17 13:06:09;;;;;;;8.00;4.10;;;;;;;5.14;77.76;101127.11;207949;1316;140708;-71
2021/12/17 13:11:18;;;;;;;13.60;3.80;;;;;;;5.10;78.02;101132.17;207227;1317;140008;-71
2021/12/17 13:16:42;;;;;;;7.40;4.10;;;;;;;5.05;78.24;101130.31;207462;1316;680390;-71
2021/12/17 13:27:10;;;;;;;7.20;3.60;;;;;;;4.99;77.76;101130.14;207679;1316;138848;-71
2021/12/17 13:32:42;;;;;;;13.40;3.70;;;;;;;4.95;77.85;101129.13;207619;1316;140408;-72
2021/12/17 13:38:02;;;;;;;;;;;;;;;;;;;;;
2021/12/17 13:43:19;;;;;;;;;;;;;;;;;;;;;
2021/12/17 13:48:25;;;;;;;13.40;6.90;;;;;;;4.74;77.77;101157.06;208858;1315;139038;-73
2021/12/17 13:53:33;;;;;;;7.40;3.20;;;;;;;4.71;78.00;101158.87;207215;1316;139197;-70
2021/12/17 13:59:08;;;;;;;13.10;6.10;;;;;;;4.70;78.09;101171.77;208154;1316;139803;-71
2021/12/17 14:04:15;;;;;;;16.30;4.00;;;;;;;4.69;77.98;101175.96;207500;1316;142500;-68
2021/12/17 14:09:23;;;;;;;10.60;4.60;;;;;;;4.64;78.09;101178.71;207216;1316;140363;-70
2021/12/17 14:14:38;;;;;;;14.90;4.50;;;;;;;4.61;78.10;101175.70;208480;1316;141868;-70
2021/12/17 14:20:11;;;;;;;9.70;3.70;;;;;;;4.58;77.97;101171.71;208105;1316;140253;-70
2021/12/17 14:25:52;;;;;;;9.30;3.80;;;;;;;4.49;78.02;101165.19;208124;1316;140407;-70
2021/12/17 14:31:09;;;;;;;36.50;17.50;;;;;;;4.35;77.97;101160.48;208523;1316;138943;-70
2021/12/17 14:36:16;;;;;;;9.00;4.40;;;;;;;4.26;77.93;101166.09;208543;1315;141356;-69
2021/12/17 14:41:38;;;;;;;9.90;6.50;;;;;;;4.17;77.81;101166.95;208650;1316;140838;-69
2021/12/17 14:47:26;;;;;;;11.70;4.70;;;;;;;4.07;78.01;101172.56;209157;1316;139788;-68
2021/12/17 15:03:06;;;;;;;8.40;4.20;;;;;;;3.80;77.90;101182.44;208443;1315;142405;-69
2021/12/17 15:08:11;;;;;;;9.50;4.00;;;;;;;3.76;78.07;101192.66;208687;1316;140265;-70
2021/12/17 15:13:21;;;;;;;14.50;4.80;;;;;;;3.81;78.37;101199.50;209433;1316;140479;-70
2021/12/17 15:18:25;;;;;;;;;;;;;;;3.87;78.49;101189.74;208548;1316;140986;-67
2021/12/17 15:23:41;;;;;;;10.00;4.30;;;;;;;3.88;78.42;101192.52;209444;1316;128216;-72
2021/12/17 15:28:48;;;;;;;13.40;3.40;;;;;;;3.91;78.36;101178.85;207951;1316;139867;-68
2021/12/17 15:34:27;;;;;;;10.30;3.60;;;;;;;3.95;78.38;101188.48;209131;1315;141808;-74
2021/12/17 15:39:40;;;;;;;9.30;5.30;;;;;;;3.95;78.39;101193.48;208501;1315;139748;-69
2021/12/17 15:44:53;;;;;;;7.60;2.90;;;;;;;3.97;78.54;101186.67;207190;1313;139493;-73
2021/12/17 15:50:00;;;;;;;11.00;3.70;;;;;;;4.00;78.25;101184.06;207826;1315;140062;-72
2021/12/17 15:55:10;;;;;;;9.20;4.00;;;;;;;4.03;78.35;101179.98;207465;1316;139780;-70
2021/12/17 16:00:18;;;;;;;8.90;4.20;;;;;;;4.02;78.31;101175.50;207223;1316;140868;-68
2021/12/17 16:05:26;;;;;;;17.90;4.80;;;;;;;3.99;78.46;101182.77;208157;1315;139416;-71
2021/12/17 16:11:09;;;;;;;14.20;5.50;;;;;;;3.97;78.49;101190.90;207294;1316;140212;-70
2021/12/17 16:21:20;;;;;;;10.10;4.50;;;;;;;3.95;78.33;101206.91;206788;1315;142272;-72
2021/12/17 16:26:28;;;;;;;17.50;5.90;;;;;;;3.92;78.32;101207.41;207391;1315;139360;-73
2021/12/17 16:31:32;;;;;;;12.60;6.20;;;;;;;3.94;78.45;101209.98;207516;1316;140664;-67
2021/12/17 16:36:39;;;;;;;10.90;3.90;;;;;;;3.95;78.32;101208.63;207830;1316;140932;-70
2021/12/17 16:41:45;;;;;;;8.10;4.00;;;;;;;3.93;78.50;101217.27;207208;1315;140664;-68
2021/12/17 16:51:58;;;;;;;15.60;4.80;;;;;;;3.81;78.53;101234.70;208727;1315;141188;-69
2021/12/17 16:57:07;;;;;;;20.60;5.40;;;;;;;3.82;78.77;101238.27;208811;1316;142593;-69
2021/12/17 17:02:14;;;;;;;17.40;7.00;;;;;;;3.84;78.68;101234.98;208402;1316;139954;-69
2021/12/17 17:07:26;;;;;;;10.30;5.40;;;;;;;3.85;78.55;101249.30;208739;1319;139661;-71
2021/12/17 17:12:35;;;;;;;9.40;4.50;;;;;;;3.88;78.45;101246.83;208319;1317;139282;-68
2021/12/17 17:17:39;;;;;;;12.10;4.40;;;;;;;3.87;78.68;101240.59;208985;1313;139520;-69
2021/12/17 17:22:44;;;;;;;13.50;3.80;;;;;;;3.87;78.66;101229.70;208215;1316;141619;-68
2021/12/17 17:27:48;;;;;;;10.40;4.80;;;;;;;3.88;78.59;101225.39;209080;1318;140274;-68
2021/12/17 17:32:53;;;;;;;11.80;4.70;;;;;;;3.85;78.76;101246.41;207924;1317;140260;-67
2021/12/17 17:38:04;;;;;;;11.90;4.60;;;;;;;3.85;78.72;101239.45;207945;1315;140048;-68
2021/12/17 17:43:10;;;;;;;11.60;4.80;;;;;;;3.83;78.77;101242.77;208608;1316;150489;-68
2021/12/17 17:48:16;;;;;;;15.00;5.50;;;;;;;3.78;78.90;101231.48;208912;1316;140389;-68
2021/12/17 17:53:20;;;;;;;11.50;4.00;;;;;;;3.76;78.87;101236.48;207086;1315;139961;-68
2021/12/17 17:58:24;;;;;;;15.90;4.80;;;;;;;3.72;79.02;101244.59;208488;1316;140219;-68
2021/12/17 18:03:29;;;;;;;12.30;4.30;;;;;;;3.67;79.02;101242.58;208250;1316;139735;-70
2021/12/17 18:09:06;;;;;;;19.90;6.60;;;;;;;3.63;79.23;101240.89;207868;1316;141549;-72
2021/12/17 18:14:11;;;;;;;9.30;3.80;;;;;;;3.62;78.99;101244.99;208131;1315;140704;-68
2021/12/17 18:19:20;;;;;;;9.30;5.20;;;;;;;3.61;79.16;101249.84;208297;1315;139968;-70
2021/12/17 18:24:27;;;;;;;13.40;5.00;;;;;;;3.60;79.41;101251.77;209017;1313;139144;-69
2021/12/17 18:29:38;;;;;;;16.70;4.50;;;;;;;3.62;79.41;101278.95;207437;1316;139475;-70
2021/12/17 18:34:42;;;;;;;13.40;3.70;;;;;;;3.67;79.47;101279.16;208730;1316;141109;-73
2021/12/17 18:39:46;;;;;;;21.50;7.40;;;;;;;3.63;79.31;101291.51;208397;1316;140044;-70
2021/12/17 18:44:51;;;;;;;14.30;4.70;;;;;;;3.58;79.65;101293.74;207324;1316;140134;-68
2021/12/17 18:50:09;;;;;;;11.70;3.70;;;;;;;3.57;79.44;101309.33;208429;1316;140944;-73
2021/12/17 18:55:14;;;;;;;13.30;5.80;;;;;;;3.56;79.62;101311.55;208001;1315;139594;-72
2021/12/17 19:00:22;;;;;;;16.30;6.70;;;;;;;3.54;79.65;101313.17;208563;1316;140565;-72
2021/12/17 19:05:36;;;;;;;17.50;6.20;;;;;;;3.55;79.65;101313.02;208790;1316;141461;-73
2021/12/17 19:10:40;;;;;;;16.20;6.40;;;;;;;3.59;79.68;101320.64;208273;1315;139974;-68
2021/12/17 19:15:46;;;;;;;9.10;5.00;;;;;;;3.57;79.59;101333.77;209547;1315;140903;-71
2021/12/17 19:20:50;;;;;;;14.80;4.20;;;;;;;3.53;79.65;101335.44;209466;1316;139610;-71
2021/12/17 19:26:20;;;;;;;19.40;7.40;;;;;;;3.47;79.60;101334.81;209535;1316;141713;-74
2021/12/17 19:31:26;;;;;;;14.50;5.60;;;;;;;3.45;79.59;101339.20;208919;1316;140224;-71
2021/12/17 19:36:38;;;;;;;14.50;5.90;;;;;;;3.44;79.71;101339.63;208088;1314;139981;-72
2021/12/17 19:41:50;;;;;;;15.40;6.10;;;;;;;3.50;79.53;101344.37;207873;1316;141207;-71
2021/12/17 19:52:09;;;;;;;18.80;4.50;;;;;;;3.44;79.52;101357.02;208252;1315;140558;-68
2021/12/17 19:57:13;;;;;;;;;;;;;;;3.46;79.69;101364.59;208133;1316;140026;-69
2021/12/17 20:02:24;;;;;;;15.80;5.10;;;;;;;3.46;79.77;101364.98;209321;1316;125737;-69
2021/12/17 20:07:32;;;;;;;11.90;4.50;;;;;;;3.46;79.61;101367.06;207289;1311;141269;-69
2021/12/17 20:12:42;;;;;;;13.20;4.60;;;;;;;3.44;79.72;101375.48;208337;1315;141436;-69
2021/12/17 20:17:48;;;;;;;16.00;6.00;;;;;;;3.46;79.64;101367.03;207963;1316;140521;-69
2021/12/17 20:22:53;;;;;;;15.10;6.30;;;;;;;3.45;79.58;101362.91;208200;1316;140158;-72
2021/12/17 20:28:01;;;;;;;20.30;6.70;;;;;;;3.44;79.68;101353.39;207831;1316;140182;-69
2021/12/17 20:33:06;;;;;;;9.70;5.50;;;;;;;3.40;79.70;101350.91;207959;1315;139525;-68
2021/12/17 20:38:15;;;;;;;14.10;6.30;;;;;;;3.37;79.54;101352.08;208286;1315;139269;-67
2021/12/17 20:43:37;;;;;;;12.50;4.70;;;;;;;3.36;79.69;101355.20;207461;1318;139815;-68
2021/12/17 20:48:44;;;;;;;13.70;6.20;;;;;;;3.32;79.63;101366.60;207773;1316;140010;-68
2021/12/17 20:53:52;;;;;;;;;;;;;;;3.35;79.63;101376.75;208083;1316;140751;-72
2021/12/17 20:59:04;;;;;;;12.70;5.00;;;;;;;3.34;79.73;101387.05;208101;1317;127993;-73
2021/12/17 21:04:10;;;;;;;13.10;6.60;;;;;;;3.32;79.92;101394.38;207565;1316;139243;-70
2021/12/17 21:09:16;;;;;;;19.10;6.60;;;;;;;3.29;79.59;101391.17;208355;1315;140001;-69
2021/12/17 21:14:21;;;;;;;12.10;5.70;;;;;;;3.30;79.68;101392.11;207699;1315;139611;-69
2021/12/17 21:19:27;;;;;;;13.10;7.30;;;;;;;3.30;79.66;101393.89;208182;1316;840404;-69
2021/12/17 21:24:31;;;;;;;9.30;5.10;;;;;;;3.29;79.90;101398.26;208621;1316;140076;-69
2021/12/17 21:29:38;;;;;;;13.70;5.10;;;;;;;3.23;79.61;101401.08;209306;1316;141732;-70
2021/12/17 21:34:46;;;;;;;14.00;4.90;;;;;;;3.18;79.44;101392.28;209035;1316;141092;-70
2021/12/17 21:39:50;;;;;;;10.70;4.70;;;;;;;3.18;79.49;101389.14;209209;1317;141380;-69
2021/12/17 21:44:58;;;;;;;12.00;4.90;;;;;;;3.14;79.53;101392.68;209413;1316;141170;-69
2021/12/17 21:50:15;;;;;;;12.60;8.20;;;;;;;3.08;79.60;101394.78;208996;1316;139946;-68
2021/12/17 21:55:24;;;;;;;15.80;6.10;;;;;;;3.05;79.69;101400.33;208800;1315;139082;-70
2021/12/17 22:00:32;;;;;;;10.00;5.50;;;;;;;3.10;79.66;101408.50;208673;1313;140428;-71
2021/12/17 22:05:39;;;;;;;22.70;6.20;;;;;;;3.11;79.61;101423.17;207949;1316;140632;-69
2021/12/17 22:10:44;;;;;;;19.20;7.80;;;;;;;3.04;79.63;101431.34;208504;1315;139435;-70
2021/12/17 22:15:52;;;;;;;10.90;6.20;;;;;;;2.96;79.89;101425.46;207991;1316;140029;-70
2021/12/17 22:21:08;;;;;;;21.00;6.60;;;;;;;2.85;79.56;101420.69;207896;1315;142158;-69
2021/12/17 22:26:13;;;;;;;29.60;9.20;;;;;;;2.81;79.78;101434.03;207389;1315;139904;-66
2021/12/17 22:31:17;;;;;;;11.60;4.70;;;;;;;2.77;79.89;101439.18;208139;1316;139821;-73
2021/12/17 22:36:33;;;;;;;10.10;4.10;;;;;;;2.76;80.11;101439.56;208136;1315;138660;-69
2021/12/17 22:41:46;;;;;;;15.00;6.30;;;;;;;2.77;80.34;101440.17;207480;1315;140664;-67
2021/12/17 22:46:58;;;;;;;7.90;5.40;;;;;;;2.82;80.12;101438.13;207932;1316;140865;-67
2021/12/17 22:52:03;;;;;;;13.00;5.90;;;;;;;2.88;80.35;101431.99;207359;1315;139716;-68
2021/12/17 22:57:08;;;;;;;12.40;7.70;;;;;;;2.88;80.38;101437.59;207528;1316;139417;-69
2021/12/17 23:02:15;;;;;;;15.10;5.70;;;;;;;2.89;80.33;101449.44;207837;1316;139295;-70
2021/12/17 23:07:29;;;;;;;16.30;5.50;;;;;;;2.90;80.36;101458.14;207629;1315;139854;-67
2021/12/17 23:12:37;;;;;;;15.50;6.60;;;;;;;2.95;80.31;101461.49;208573;1316;141678;-68
2021/12/17 23:17:49;;;;;;;12.40;4.50;;;;;;;2.99;80.15;101454.44;207070;1315;140898;-73
2021/12/17 23:23:07;;;;;;;10.50;5.00;;;;;;;2.98;80.27;101449.78;208973;1315;139545;-71
2021/12/17 23:28:13;;;;;;;11.00;5.10;;;;;;;2.98;80.20;101455.46;206764;1316;140194;-71
2021/12/17 23:33:45;;;;;;;13.60;4.50;;;;;;;2.98;80.30;101455.40;206644;1315;140377;-73
2021/12/17 23:38:50;;;;;;;12.70;5.90;;;;;;;3.06;80.45;101470.33;207873;1316;139805;-69
2021/12/17 23:43:58;;;;;;;16.80;5.80;;;;;;;3.11;80.35;101474.42;207446;1315;140166;-70
2021/12/17 23:49:13;;;;;;;13.50;6.00;;;;;;;3.12;80.36;101474.73;208583;1315;140675;-71
2021/12/17 23:54:17;;;;;;;8.80;5.20;;;;;;;3.12;80.44;101472.27;208691;1316;138958;-72
2021/12/17 23:59:23;;;;;;;10.60;6.40;;;;;;;3.11;80.16;101469.55;208447;1317;139582;-72
